createdAt,value
2019-06-07T00:01:23.930Z,74.30
2019-06-07T00:03:54.321Z,74.40
2019-06-07T00:06:25.853Z,74.60
2019-06-07T00:08:56.435Z,74.50
2019-06-07T00:11:26.767Z,74.50
2019-06-07T00:13:57.076Z,74.50
2019-06-07T00:16:27.301Z,74.60
2019-06-07T00:18:57.513Z,74.60
2019-06-07T00:22:13.062Z,74.50
2019-06-07T00:23:59.749Z,74.50
2019-06-07T00:26:29.872Z,74.40
2019-06-07T00:29:00.088Z,76.00
2019-06-07T00:31:30.319Z,74.60
2019-06-07T00:34:00.530Z,74.50
2019-06-07T00:36:31.688Z,74.60
2019-06-07T00:39:03.602Z,74.50
2019-06-07T00:41:34.525Z,74.60
2019-06-07T00:44:05.011Z,74.60
2019-06-07T00:46:35.320Z,75.30
2019-06-07T00:49:05.535Z,74.50
2019-06-07T00:51:49.899Z,74.60
2019-06-07T00:54:07.669Z,74.60
2019-06-07T00:56:37.990Z,74.40
2019-06-07T00:59:11.731Z,74.50
2019-06-07T01:01:40.025Z,74.60
2019-06-07T01:04:10.359Z,74.80
2019-06-07T01:06:40.578Z,74.20
2019-06-07T01:09:10.763Z,74.80
2019-06-07T01:11:40.979Z,74.40
2019-06-07T01:14:11.171Z,74.80
2019-06-07T01:16:56.237Z,74.70
2019-06-07T01:19:13.857Z,75.00
2019-06-07T01:21:44.201Z,74.80
2019-06-07T01:24:15.390Z,74.90
2019-06-07T01:26:45.714Z,74.90
2019-06-07T01:29:17.702Z,74.80
2019-06-07T01:31:47.962Z,74.80
2019-06-07T01:34:18.525Z,75.10
2019-06-07T01:36:49.005Z,75.30
2019-06-07T01:39:24.074Z,75.30
2019-06-07T01:41:53.261Z,75.30
2019-06-07T01:44:26.013Z,75.20
2019-06-07T01:46:55.463Z,75.20
2019-06-07T01:49:29.554Z,75.10
2019-06-07T01:51:59.695Z,75.10
2019-06-07T01:57:01.893Z,75.10
2019-06-07T01:59:32.167Z,75.30
2019-06-07T02:02:02.496Z,75.40
2019-06-07T02:04:33.614Z,75.50
2019-06-07T02:07:04.081Z,75.60
2019-06-07T02:09:34.314Z,75.80
2019-06-07T02:12:23.895Z,76.00
2019-06-07T02:14:36.430Z,76.10
2019-06-07T02:17:06.633Z,76.20
2019-06-07T02:19:36.892Z,76.20
2019-06-07T02:22:29.474Z,76.50
2019-06-07T02:25:34.609Z,77.10
2019-06-07T02:34:16.261Z,76.10
2019-06-07T02:36:46.479Z,75.90
2019-06-07T02:42:48.210Z,76.60
2019-06-07T02:48:50.393Z,76.10
2019-06-07T02:52:09.928Z,76.10
2019-06-07T03:06:06.921Z,77.00
2019-06-07T03:08:39.517Z,76.40
2019-06-07T03:11:15.321Z,76.70
2019-06-07T03:13:48.577Z,76.90
2019-06-07T03:19:48.852Z,77.00
2019-06-07T03:44:37.795Z,76.60
2019-06-07T03:47:05.380Z,76.40
2019-06-07T03:49:42.714Z,76.50
2019-06-07T03:52:13.145Z,76.60
2019-06-07T03:55:18.737Z,76.70
2019-06-07T04:00:47.331Z,76.90
2019-06-07T04:03:33.036Z,77.00
2019-06-07T04:06:09.417Z,76.60
2019-06-07T04:08:42.227Z,76.80
2019-06-07T04:11:51.276Z,76.80
2019-06-07T04:21:40.362Z,76.90
2019-06-07T04:24:08.764Z,77.30
2019-06-07T04:26:43.286Z,76.50
2019-06-07T04:31:43.335Z,76.60
2019-06-07T04:34:13.556Z,76.50
2019-06-07T04:36:58.771Z,76.50
2019-06-07T04:39:18.432Z,76.40
2019-06-07T04:41:50.100Z,76.50
2019-06-07T04:44:21.823Z,76.40
2019-06-07T04:46:56.910Z,76.30
2019-06-07T04:49:27.079Z,76.30
2019-06-07T04:51:57.902Z,76.30
2019-06-07T04:54:30.925Z,76.20
2019-06-07T04:56:59.922Z,76.20
2019-06-07T05:00:04.135Z,76.00
2019-06-07T05:02:02.112Z,76.00
2019-06-07T05:04:33.151Z,76.00
2019-06-07T05:07:07.276Z,76.20
2019-06-07T05:09:39.410Z,76.20
2019-06-07T05:12:09.285Z,76.20
2019-06-07T05:14:42.380Z,76.20
2019-06-07T05:17:11.369Z,76.00
2019-06-07T05:19:44.202Z,75.90
2019-06-07T05:22:14.698Z,75.80
2019-06-07T05:24:44.916Z,75.90
2019-06-07T05:27:15.112Z,75.90
2019-06-07T05:30:08.793Z,75.80
2019-06-07T05:32:19.711Z,75.80
2019-06-07T05:34:49.853Z,75.80
2019-06-07T05:37:20.151Z,75.70
2019-06-07T05:39:50.515Z,75.70
2019-06-07T05:42:20.891Z,75.50
2019-06-07T05:44:51.081Z,75.60
2019-06-07T05:47:21.370Z,75.60
2019-06-07T05:49:51.575Z,75.60
2019-06-07T05:52:21.856Z,75.60
2019-06-07T05:54:52.037Z,75.50
2019-06-07T05:57:22.388Z,75.40
2019-06-07T05:59:52.714Z,75.30
2019-06-07T06:02:24.857Z,75.20
2019-06-07T06:04:55.064Z,75.10
2019-06-07T06:07:25.659Z,75.20
2019-06-07T06:09:57.400Z,75.10
2019-06-07T06:12:35.531Z,75.10
2019-06-07T06:14:59.610Z,75.10
2019-06-07T06:17:30.300Z,75.00
2019-06-07T06:20:00.810Z,74.80
2019-06-07T06:22:31.418Z,74.80
2019-06-07T06:25:30.982Z,74.60
2019-06-07T06:30:06.806Z,74.60
2019-06-07T06:32:44.031Z,74.60
2019-06-07T06:35:08.997Z,74.60
2019-06-07T06:37:42.578Z,74.70
2019-06-07T06:40:26.462Z,74.20
2019-06-07T06:42:56.851Z,74.20
2019-06-07T06:45:27.270Z,74.20
2019-06-07T06:47:57.631Z,74.20
2019-06-07T06:50:28.025Z,73.90
2019-06-07T06:52:58.405Z,73.80
2019-06-07T06:55:28.733Z,73.20
2019-06-07T06:58:00.083Z,73.70
2019-06-07T07:00:56.981Z,73.70
2019-06-07T07:03:54.154Z,73.90
2019-06-07T07:05:54.683Z,73.50
2019-06-07T07:08:24.189Z,73.00
2019-06-07T07:10:55.071Z,73.10
2019-06-07T07:13:25.839Z,72.70
2019-06-07T07:15:58.448Z,72.50
2019-06-07T07:18:31.012Z,72.20
2019-06-07T07:21:01.301Z,72.00
2019-06-07T07:23:33.053Z,72.10
2019-06-07T07:26:03.273Z,72.20
2019-06-07T07:28:33.570Z,70.20
2019-06-07T07:31:03.836Z,71.40
2019-06-07T07:34:20.649Z,71.30
2019-06-07T07:36:28.153Z,71.30
2019-06-07T07:38:39.099Z,71.20
2019-06-07T07:41:15.443Z,71.10
2019-06-07T07:43:49.233Z,70.80
2019-06-07T07:46:30.532Z,70.90
2019-06-07T07:48:48.529Z,70.80
2019-06-07T07:51:18.980Z,69.60
2019-06-07T07:54:01.448Z,69.50
2019-06-07T07:56:22.023Z,70.00
2019-06-07T07:58:57.928Z,67.70
2019-06-07T08:01:24.090Z,69.70
2019-06-07T08:03:56.123Z,69.80
2019-06-07T08:06:26.283Z,69.80
2019-06-07T08:08:57.146Z,69.60
2019-06-07T08:11:27.540Z,67.80
2019-06-07T15:45:54.293Z,63.50
2019-06-07T15:48:25.013Z,67.10
2019-06-07T15:50:55.222Z,66.40
2019-06-07T15:53:25.567Z,65.40
2019-06-07T15:55:56.880Z,66.20
2019-06-07T15:58:27.146Z,65.40
2019-06-07T16:00:57.433Z,64.90
2019-06-07T16:03:27.610Z,63.90
2019-06-07T16:05:58.003Z,63.00
2019-06-07T16:08:28.290Z,55.30
2019-06-07T16:10:58.521Z,53.00
2019-06-07T16:13:28.769Z,58.60
2019-06-07T16:15:58.987Z,56.50
2019-06-07T16:18:29.185Z,57.00
2019-06-07T16:20:59.579Z,56.70
2019-06-07T16:23:29.764Z,58.10
2019-06-07T16:26:01.097Z,57.90
2019-06-07T16:28:31.600Z,56.60
2019-06-07T16:31:02.013Z,56.00
2019-06-07T16:33:32.309Z,57.50
2019-06-07T16:36:02.680Z,56.70
2019-06-07T16:38:32.983Z,54.90
2019-06-07T16:45:26.640Z,56.20
2019-06-07T16:47:56.882Z,55.00
2019-06-07T16:50:29.153Z,56.50
2019-06-07T16:52:59.361Z,55.00
2019-06-07T16:55:29.630Z,54.70
2019-06-07T16:57:59.946Z,55.10
2019-06-07T17:00:30.225Z,54.90
2019-06-07T17:03:00.495Z,54.50
2019-06-07T17:05:30.688Z,55.10
2019-06-07T17:08:00.898Z,53.70
2019-06-07T17:10:32.412Z,54.80
2019-06-07T17:13:02.611Z,54.40
2019-06-07T17:15:32.966Z,54.20
2019-06-07T17:18:04.370Z,53.20
2019-06-07T17:20:34.654Z,53.90
2019-06-07T17:23:08.559Z,54.10
2019-06-07T17:25:39.464Z,54.30
2019-06-07T17:28:10.822Z,54.50
2019-06-07T17:30:41.775Z,52.80
2019-06-07T17:33:12.234Z,54.20
2019-06-07T17:35:44.642Z,54.20
2019-06-07T17:38:16.145Z,53.70
2019-06-07T17:40:47.111Z,54.10
2019-06-07T17:43:17.625Z,54.40
2019-06-07T17:45:49.422Z,54.30
2019-06-07T17:48:19.726Z,53.70
2019-06-07T17:50:50.219Z,53.90
2019-06-07T17:53:20.499Z,53.70
2019-06-07T17:55:54.324Z,54.20
2019-06-07T17:58:24.596Z,54.20
2019-06-07T18:00:55.015Z,54.50
2019-06-07T18:03:25.787Z,54.60
2019-06-07T18:33:03.477Z,54.50
2019-06-07T18:35:33.780Z,56.20
2019-06-07T18:38:04.184Z,56.30
2019-06-07T18:40:34.336Z,56.20
2019-06-07T18:43:04.927Z,56.20
2019-06-07T18:45:35.184Z,56.10
2019-06-07T18:48:05.995Z,56.00
2019-06-07T18:50:36.611Z,56.10
2019-06-07T18:53:07.287Z,56.10
2019-06-07T18:55:38.048Z,56.10
2019-06-07T18:58:10.913Z,56.20
2019-06-07T19:00:40.753Z,56.20
2019-06-07T19:03:12.768Z,56.20
2019-06-07T19:05:43.024Z,56.30
2019-06-07T19:08:13.662Z,56.30
2019-06-07T19:10:44.635Z,56.30
2019-06-07T19:13:15.925Z,56.30
2019-06-07T19:15:46.794Z,56.30
2019-06-07T19:18:18.732Z,56.20
2019-06-07T19:20:50.765Z,56.30
2019-06-07T19:23:22.325Z,56.40
2019-06-07T19:25:54.270Z,56.30
2019-06-07T19:28:24.794Z,56.30
2019-06-07T19:30:57.160Z,56.30
2019-06-07T19:33:29.214Z,56.20
2019-06-07T19:36:02.058Z,56.20
2019-06-07T19:38:33.588Z,56.30
2019-06-07T19:41:18.931Z,56.40
2019-06-07T19:43:38.416Z,56.60
2019-06-07T19:46:11.207Z,56.70
2019-06-07T19:48:42.867Z,56.80
2019-06-07T19:51:20.430Z,57.00
2019-06-07T19:53:52.861Z,57.00
2019-06-07T19:56:27.080Z,57.10
2019-06-07T19:58:59.639Z,57.30
2019-06-07T20:01:31.796Z,57.20
2019-06-07T20:04:17.422Z,57.30
2019-06-07T20:09:48.231Z,57.40
2019-06-07T20:12:20.264Z,57.50
2019-06-07T20:14:53.891Z,57.60
2019-06-07T20:17:25.536Z,57.70
2019-06-07T20:19:58.275Z,57.60
2019-06-07T20:22:29.848Z,57.60
2019-06-07T20:25:03.080Z,57.80
2019-06-07T20:27:34.689Z,57.90
2019-06-07T20:30:12.146Z,58.00
2019-06-07T20:32:44.047Z,58.00
2019-06-07T20:35:16.395Z,58.40
2019-06-07T20:37:48.407Z,58.00
2019-06-07T20:40:24.627Z,58.10
2019-06-07T20:42:52.486Z,58.20
2019-06-07T20:45:33.088Z,58.40
2019-06-07T20:47:54.632Z,58.70
2019-06-07T20:50:25.004Z,58.40
2019-06-07T20:52:55.202Z,58.50
2019-06-07T20:55:25.501Z,58.60
2019-06-07T20:57:56.100Z,58.80
2019-06-07T21:00:26.568Z,58.90
2019-06-07T21:02:58.990Z,59.00
2019-06-07T21:05:30.467Z,59.00
2019-06-07T21:08:03.779Z,59.00
2019-06-07T21:10:38.093Z,59.10
2019-06-07T21:13:10.236Z,59.30
2019-06-07T21:15:48.778Z,59.20
2019-06-07T21:18:19.374Z,59.50
2019-06-07T21:20:44.976Z,60.00
2019-06-07T21:23:15.310Z,59.60
2019-06-07T21:25:45.540Z,59.70
2019-06-07T21:28:15.915Z,59.90
2019-06-07T21:30:46.146Z,59.90
2019-06-07T21:33:16.678Z,60.40
2019-06-07T21:35:46.969Z,60.30
2019-06-07T21:38:17.248Z,61.50
2019-06-07T21:40:47.511Z,61.60
2019-06-07T21:43:17.732Z,60.70
2019-06-07T21:46:01.558Z,60.70
2019-06-07T21:48:19.920Z,60.90
2019-06-07T21:50:50.260Z,60.80
2019-06-07T21:53:20.711Z,60.90
2019-06-07T21:55:50.930Z,61.00
2019-06-07T21:58:21.756Z,62.10
2019-06-07T22:00:54.927Z,61.30
2019-06-07T22:03:27.137Z,61.60
2019-06-07T22:05:57.346Z,61.60
2019-06-07T22:08:27.596Z,61.40
2019-06-07T22:10:58.088Z,61.60
2019-06-07T22:13:28.304Z,61.60
2019-06-07T22:15:58.547Z,61.70
2019-06-07T22:18:28.750Z,61.90
2019-06-07T22:20:59.012Z,61.80
2019-06-07T22:23:30.279Z,62.00
2019-06-07T22:26:00.736Z,61.90
2019-06-07T22:28:32.898Z,62.00
2019-06-07T22:31:03.040Z,62.40
2019-06-07T22:33:33.254Z,62.00
2019-06-07T22:36:03.441Z,62.10
2019-06-07T22:38:33.781Z,62.10
2019-06-07T22:41:03.973Z,62.20
2019-06-07T22:43:34.235Z,62.40
2019-06-07T22:46:04.634Z,62.40
2019-06-07T22:48:35.085Z,62.60
2019-06-07T22:51:08.835Z,63.20
2019-06-07T22:53:43.874Z,62.90
2019-06-07T22:56:16.082Z,63.70
2019-06-07T22:58:47.416Z,63.10
2019-06-07T23:01:20.292Z,63.40
2019-06-07T23:03:50.636Z,63.10
2019-06-07T23:06:20.912Z,63.70
2019-06-07T23:08:51.209Z,63.70
2019-06-07T23:11:21.422Z,63.50
2019-06-07T23:13:51.640Z,63.70
2019-06-07T23:16:21.931Z,63.80
2019-06-07T23:18:52.245Z,63.10
2019-06-07T23:21:22.469Z,63.80
2019-06-07T23:23:52.719Z,63.80
2019-06-07T23:26:22.939Z,63.60
2019-06-07T23:28:54.421Z,63.90
2019-06-07T23:31:24.626Z,64.00
2019-06-07T23:33:57.848Z,64.00
2019-06-07T23:36:28.040Z,64.20
2019-06-07T23:38:58.299Z,65.50
2019-06-07T23:41:33.264Z,64.70
2019-06-07T23:44:03.435Z,65.30
2019-06-07T23:46:33.625Z,65.00
2019-06-07T23:49:03.812Z,65.00
2019-06-07T23:51:36.129Z,65.40
2019-06-07T23:54:05.482Z,65.30
2019-06-07T23:56:35.579Z,65.80
2019-06-07T23:59:05.808Z,65.60
